createdAt,value
2022-11-16T00:01:10.082Z,23.60
2022-11-16T00:03:51.747Z,23.60
2022-11-16T00:06:28.748Z,23.60
2022-11-16T00:09:34.393Z,23.60
2022-11-16T00:12:18.837Z,23.60
2022-11-16T00:15:01.258Z,23.60
2022-11-16T00:17:37.244Z,23.60
2022-11-16T00:20:13.513Z,23.60
2022-11-16T00:22:53.953Z,23.60
2022-11-16T00:25:34.734Z,23.60
2022-11-16T00:28:12.197Z,23.60
2022-11-16T00:30:50.548Z,23.70
2022-11-16T00:33:30.593Z,23.60
2022-11-16T00:36:05.064Z,23.60
2022-11-16T00:38:48.533Z,23.50
2022-11-16T00:41:25.811Z,23.50
2022-11-16T00:44:18.997Z,23.50
2022-11-16T00:46:53.600Z,23.50
2022-11-16T00:49:29.442Z,23.40
2022-11-16T00:52:03.866Z,23.40
2022-11-16T00:54:38.302Z,23.40
2022-11-16T00:57:28.468Z,23.40
2022-11-16T01:00:01.895Z,23.40
2022-11-16T01:02:40.237Z,23.40
2022-11-16T01:05:24.206Z,23.50
2022-11-16T01:08:02.939Z,23.50
2022-11-16T01:13:28.772Z,23.50
2022-11-16T01:16:01.823Z,23.50
2022-11-16T01:18:35.206Z,23.50
2022-11-16T01:21:10.054Z,23.50
2022-11-16T01:23:43.091Z,23.50
2022-11-16T01:26:16.052Z,23.50
2022-11-16T01:28:49.394Z,23.50
2022-11-16T01:31:22.215Z,23.60
2022-11-16T01:33:57.871Z,23.60
2022-11-16T01:36:30.943Z,23.60
2022-11-16T01:39:03.957Z,23.60
2022-11-16T01:41:36.883Z,23.60
2022-11-16T01:44:12.040Z,23.60
2022-11-16T01:46:45.216Z,23.50
2022-11-16T01:49:26.855Z,23.50
2022-11-16T01:52:04.629Z,23.50
2022-11-16T01:54:54.092Z,23.50
2022-11-16T01:57:29.219Z,23.50
2022-11-16T02:00:03.575Z,23.50
2022-11-16T02:02:36.644Z,23.50
2022-11-16T02:05:11.623Z,23.50
2022-11-16T02:08:25.064Z,23.50
2022-11-16T02:11:12.210Z,23.40
2022-11-16T02:14:15.648Z,23.40
2022-11-16T02:16:51.489Z,23.40
2022-11-16T02:19:32.658Z,23.40
2022-11-16T02:22:28.854Z,23.30
2022-11-16T02:25:12.677Z,23.30
2022-11-16T02:28:05.732Z,23.30
2022-11-16T02:30:40.310Z,23.20
2022-11-16T02:33:14.908Z,23.20
2022-11-16T02:35:55.700Z,23.30
2022-11-16T02:38:36.725Z,23.20
2022-11-16T02:41:14.920Z,23.20
2022-11-16T02:43:52.544Z,23.20
2022-11-16T02:46:27.626Z,23.10
2022-11-16T02:49:04.992Z,23.10
2022-11-16T02:51:40.132Z,23.10
2022-11-16T02:54:20.830Z,23.10
2022-11-16T02:57:01.077Z,23.10
2022-11-16T02:59:39.043Z,23.10
2022-11-16T03:02:30.874Z,23.10
2022-11-16T03:05:14.873Z,23.10
2022-11-16T03:07:56.273Z,23.00
2022-11-16T03:10:47.336Z,23.00
2022-11-16T03:13:21.937Z,22.90
2022-11-16T03:15:56.395Z,22.90
2022-11-16T03:18:31.694Z,22.90
2022-11-16T03:21:07.193Z,22.90
2022-11-16T03:23:40.728Z,22.90
2022-11-16T03:26:16.038Z,22.90
2022-11-16T03:28:50.890Z,22.90
2022-11-16T03:31:25.795Z,22.80
2022-11-16T03:34:00.944Z,22.80
2022-11-16T03:36:38.761Z,22.80
2022-11-16T03:39:13.677Z,22.70
2022-11-16T03:41:47.915Z,22.70
2022-11-16T03:44:22.378Z,22.70
2022-11-16T03:46:55.387Z,22.70
2022-11-16T03:49:28.266Z,22.60
2022-11-16T03:52:02.403Z,22.60
2022-11-16T03:54:35.289Z,22.60
2022-11-16T03:57:08.689Z,22.60
2022-11-16T03:59:41.827Z,22.50
2022-11-16T04:02:19.275Z,22.50
2022-11-16T04:05:09.850Z,22.50
2022-11-16T04:08:00.370Z,22.50
2022-11-16T04:10:53.243Z,22.50
2022-11-16T04:13:45.100Z,22.40
2022-11-16T04:16:35.470Z,22.40
2022-11-16T04:19:25.716Z,22.40
2022-11-16T04:22:23.306Z,22.30
2022-11-16T04:24:58.724Z,22.30
2022-11-16T04:27:50.802Z,22.30
2022-11-16T04:30:23.820Z,22.30
2022-11-16T04:33:14.053Z,22.30
2022-11-16T04:36:04.153Z,22.20
2022-11-16T04:38:37.369Z,22.20
2022-11-16T04:41:11.395Z,22.20
2022-11-16T04:43:44.339Z,22.20
2022-11-16T04:46:34.724Z,22.20
2022-11-16T04:49:07.742Z,22.20
2022-11-16T04:51:40.787Z,22.20
2022-11-16T04:54:13.786Z,22.20
2022-11-16T04:56:46.675Z,22.10
2022-11-16T04:59:19.903Z,22.10
2022-11-16T05:02:11.445Z,22.10
2022-11-16T05:04:45.781Z,22.10
2022-11-16T05:07:19.596Z,22.00
2022-11-16T05:09:53.457Z,22.00
2022-11-16T05:12:28.117Z,22.00
2022-11-16T05:15:01.238Z,22.00
2022-11-16T05:17:34.207Z,22.00
2022-11-16T05:20:24.642Z,22.00
2022-11-16T05:23:02.310Z,21.90
2022-11-16T05:25:37.053Z,21.90
2022-11-16T05:28:09.449Z,21.90
2022-11-16T05:30:45.855Z,21.90
2022-11-16T05:33:19.719Z,21.90
2022-11-16T05:35:53.783Z,21.80
2022-11-16T05:38:26.792Z,21.80
2022-11-16T05:40:59.770Z,21.80
2022-11-16T05:43:33.891Z,21.80
2022-11-16T05:46:06.769Z,21.80
2022-11-16T05:48:39.784Z,21.80
2022-11-16T05:51:12.918Z,21.70
2022-11-16T05:53:46.354Z,21.70
2022-11-16T05:56:19.621Z,21.70
2022-11-16T05:58:52.697Z,21.70
2022-11-16T06:01:25.728Z,21.70
2022-11-16T06:03:58.911Z,21.60
2022-11-16T06:06:32.207Z,21.60
2022-11-16T06:09:05.300Z,21.60
2022-11-16T06:11:39.735Z,21.60
2022-11-16T06:14:15.374Z,21.60
2022-11-16T06:16:48.339Z,21.60
2022-11-16T06:19:21.517Z,21.60
2022-11-16T06:21:54.677Z,21.60
2022-11-16T06:24:28.479Z,21.60
2022-11-16T06:27:01.601Z,21.50
2022-11-16T06:29:34.482Z,21.50
2022-11-16T06:32:07.396Z,21.50
2022-11-16T06:34:40.954Z,21.50
2022-11-16T06:37:13.836Z,21.40
2022-11-16T06:39:46.894Z,21.50
2022-11-16T06:42:19.931Z,21.40
2022-11-16T06:44:52.817Z,21.40
2022-11-16T06:47:25.647Z,21.40
2022-11-16T06:49:58.629Z,21.30
2022-11-16T06:52:31.732Z,21.30
2022-11-16T06:55:04.735Z,21.30
2022-11-16T06:57:37.951Z,21.30
2022-11-16T07:00:12.126Z,21.30
2022-11-16T07:02:45.391Z,21.30
2022-11-16T07:05:18.387Z,21.20
2022-11-16T07:07:51.206Z,21.20
2022-11-16T07:10:24.301Z,21.20
2022-11-16T07:12:57.548Z,21.20
2022-11-16T07:15:33.324Z,21.20
2022-11-16T07:18:12.643Z,21.20
2022-11-16T07:20:45.784Z,21.20
2022-11-16T07:23:19.234Z,21.10
2022-11-16T07:25:52.669Z,21.10
2022-11-16T07:28:25.656Z,21.10
2022-11-16T07:30:58.770Z,21.10
2022-11-16T07:33:31.719Z,21.10
2022-11-16T07:36:08.782Z,21.10
2022-11-16T07:38:41.774Z,21.10
2022-11-16T07:41:22.336Z,21.10
2022-11-16T07:43:55.374Z,21.00
2022-11-16T07:46:45.895Z,21.00
2022-11-16T07:49:04.007Z,21.00
2022-11-16T07:51:37.190Z,21.00
2022-11-16T07:54:14.509Z,21.00
2022-11-16T07:56:47.758Z,21.00
2022-11-16T07:59:20.730Z,21.00
2022-11-16T08:01:54.029Z,21.00
2022-11-16T08:04:26.964Z,20.90
2022-11-16T08:07:00.203Z,20.90
2022-11-16T08:09:33.346Z,20.90
2022-11-16T08:12:10.788Z,20.90
2022-11-16T08:14:43.587Z,20.90
2022-11-16T08:17:16.679Z,20.90
2022-11-16T08:19:49.703Z,20.80
2022-11-16T08:22:22.581Z,20.80
2022-11-16T08:24:55.753Z,20.80
2022-11-16T08:27:28.686Z,20.80
2022-11-16T08:30:01.808Z,20.80
2022-11-16T08:32:34.822Z,20.80
2022-11-16T08:35:08.482Z,20.70
2022-11-16T08:37:41.451Z,20.70
2022-11-16T08:40:16.518Z,20.70
2022-11-16T08:42:49.365Z,20.70
2022-11-16T08:45:22.405Z,20.70
2022-11-16T08:48:03.359Z,20.70
2022-11-16T08:50:31.395Z,20.60
2022-11-16T08:53:03.986Z,20.60
2022-11-16T08:55:37.756Z,20.60
2022-11-16T08:58:10.698Z,20.60
2022-11-16T09:00:43.767Z,20.60
2022-11-16T09:03:16.748Z,20.60
2022-11-16T09:05:49.767Z,20.60
2022-11-16T09:08:22.888Z,20.50
2022-11-16T09:10:56.224Z,20.50
2022-11-16T09:13:29.459Z,20.50
2022-11-16T09:16:02.985Z,20.50
2022-11-16T09:18:36.523Z,20.50
2022-11-16T09:21:09.541Z,20.50
2022-11-16T09:23:42.375Z,20.50
2022-11-16T09:26:15.796Z,20.50
2022-11-16T09:28:49.406Z,20.50
2022-11-16T09:31:23.732Z,20.40
2022-11-16T09:33:57.154Z,20.40
2022-11-16T09:36:31.316Z,20.40
2022-11-16T09:42:19.794Z,20.30
2022-11-16T09:45:00.361Z,20.20
2022-11-16T09:47:38.524Z,20.20
2022-11-16T09:50:13.457Z,20.20
2022-11-16T09:52:51.248Z,20.10
2022-11-16T09:55:25.890Z,20.10
2022-11-16T09:58:00.778Z,20.10
2022-11-16T10:00:34.655Z,20.10
2022-11-16T10:03:18.126Z,20.10
2022-11-16T10:06:02.250Z,20.10
2022-11-16T10:08:49.314Z,20.10
2022-11-16T10:11:33.560Z,20.00
2022-11-16T10:14:17.054Z,20.00
2022-11-16T10:17:08.032Z,20.00
2022-11-16T10:19:55.289Z,20.00
2022-11-16T10:22:48.493Z,20.00
2022-11-16T10:25:29.423Z,20.00
2022-11-16T10:28:19.375Z,20.00
2022-11-16T10:30:55.308Z,20.00
2022-11-16T10:33:31.387Z,20.00
2022-11-16T10:36:05.144Z,20.00
2022-11-16T10:38:38.334Z,20.00
2022-11-16T10:41:28.926Z,20.00
2022-11-16T10:44:03.213Z,19.90
2022-11-16T10:46:41.152Z,19.90
2022-11-16T10:49:32.677Z,19.90
2022-11-16T10:52:06.047Z,19.90
2022-11-16T10:54:42.986Z,19.90
2022-11-16T10:57:14.561Z,19.90
2022-11-16T10:59:49.431Z,19.90
2022-11-16T11:02:39.531Z,19.80
2022-11-16T11:05:23.735Z,19.80
2022-11-16T11:08:07.935Z,19.80
2022-11-16T11:10:43.393Z,19.80
2022-11-16T11:13:18.776Z,19.80
2022-11-16T11:15:53.073Z,19.80
2022-11-16T11:18:32.428Z,19.80
2022-11-16T11:21:22.890Z,19.80
2022-11-16T11:24:16.139Z,19.80
2022-11-16T11:26:37.633Z,19.80
2022-11-16T11:29:31.212Z,19.80
2022-11-16T11:32:06.457Z,19.80
2022-11-16T11:34:47.075Z,19.80
2022-11-16T11:37:31.119Z,19.80
2022-11-16T11:40:15.347Z,19.80
2022-11-16T11:42:50.185Z,19.80
2022-11-16T11:45:25.098Z,19.80
2022-11-16T11:48:03.408Z,19.80
2022-11-16T11:50:53.576Z,19.80
2022-11-16T11:53:35.219Z,19.80
2022-11-16T11:56:09.213Z,19.80
2022-11-16T11:58:44.288Z,19.80
2022-11-16T12:01:25.730Z,19.70
2022-11-16T12:04:18.955Z,19.70
2022-11-16T12:07:10.582Z,19.70
2022-11-16T12:09:48.301Z,19.70
2022-11-16T12:12:26.023Z,19.70
2022-11-16T12:15:17.054Z,19.70
2022-11-16T12:18:01.523Z,19.70
2022-11-16T12:20:51.830Z,19.70
2022-11-16T12:23:39.293Z,19.70
2022-11-16T12:26:32.114Z,19.70
2022-11-16T12:29:30.221Z,19.60
2022-11-16T12:32:14.679Z,19.60
2022-11-16T12:34:49.810Z,19.60
2022-11-16T12:37:37.181Z,19.60
2022-11-16T12:40:27.350Z,19.60
2022-11-16T12:43:04.948Z,19.60
2022-11-16T12:45:43.304Z,19.60
2022-11-16T12:48:46.680Z,19.60
2022-11-16T12:51:42.670Z,19.60
2022-11-16T12:54:33.974Z,19.60
2022-11-16T12:57:08.890Z,19.60
2022-11-16T12:59:46.729Z,19.60
2022-11-16T13:02:22.098Z,19.60
2022-11-16T13:05:08.656Z,19.60
2022-11-16T13:07:52.310Z,19.60
2022-11-16T13:10:30.714Z,19.60
2022-11-16T13:15:47.971Z,19.60
2022-11-16T13:18:23.595Z,19.60
2022-11-16T13:21:01.443Z,19.60
2022-11-16T13:23:45.028Z,19.60
2022-11-16T13:26:35.233Z,19.60
2022-11-16T13:29:28.940Z,19.60
2022-11-16T13:32:07.278Z,19.50
2022-11-16T13:34:42.031Z,19.60
2022-11-16T13:37:39.836Z,19.60
2022-11-16T13:40:16.638Z,19.50
2022-11-16T13:43:08.144Z,19.50
2022-11-16T13:45:55.161Z,19.50
2022-11-16T13:48:33.266Z,19.50
2022-11-16T13:51:08.506Z,19.50
2022-11-16T13:56:19.128Z,19.50
2022-11-16T13:59:00.317Z,19.50
2022-11-16T14:01:35.337Z,19.50
2022-11-16T14:04:45.566Z,19.50
2022-11-16T14:07:42.752Z,19.50
2022-11-16T14:10:17.953Z,19.50
2022-11-16T14:12:59.119Z,19.50
2022-11-16T14:15:34.353Z,19.50
2022-11-16T14:18:15.551Z,19.50
2022-11-16T14:20:59.063Z,19.50
2022-11-16T14:23:37.217Z,19.50
2022-11-16T14:26:27.223Z,19.50
2022-11-16T14:29:05.238Z,19.40
2022-11-16T14:31:59.053Z,19.40
2022-11-16T14:34:48.836Z,19.40
2022-11-16T14:37:30.687Z,19.40
2022-11-16T14:40:20.433Z,19.40
2022-11-16T14:45:34.168Z,19.40
2022-11-16T14:48:09.356Z,19.40
2022-11-16T14:50:42.379Z,19.40
2022-11-16T14:53:17.478Z,19.40
2022-11-16T14:55:50.400Z,19.40
2022-11-16T14:58:25.582Z,19.50
2022-11-16T15:01:06.586Z,19.40
2022-11-16T15:03:52.931Z,19.50
2022-11-16T15:06:26.299Z,19.40
2022-11-16T15:09:01.380Z,19.50
2022-11-16T15:11:53.270Z,19.50
2022-11-16T15:14:27.951Z,19.50
2022-11-16T15:17:02.253Z,19.40
2022-11-16T15:19:35.447Z,19.40
2022-11-16T15:22:10.614Z,19.40
2022-11-16T15:24:43.573Z,19.50
2022-11-16T15:27:18.408Z,19.50
2022-11-16T15:29:52.256Z,19.50
2022-11-16T15:32:25.663Z,19.50
2022-11-16T15:35:03.968Z,19.50
2022-11-16T15:37:33.867Z,19.50
2022-11-16T15:40:07.313Z,19.50
2022-11-16T15:42:41.324Z,19.40
2022-11-16T15:45:28.169Z,19.40
2022-11-16T15:48:02.843Z,19.40
2022-11-16T15:50:36.125Z,19.40
2022-11-16T15:53:09.267Z,19.40
2022-11-16T15:55:44.092Z,19.40
2022-11-16T15:58:29.046Z,19.40
2022-11-16T16:01:03.074Z,19.30
2022-11-16T16:03:37.532Z,19.30
2022-11-16T16:06:12.197Z,19.30
2022-11-16T16:08:46.418Z,19.30
2022-11-16T16:11:26.929Z,19.20
2022-11-16T16:14:06.447Z,19.20
2022-11-16T16:16:39.793Z,19.20
2022-11-16T16:19:32.993Z,19.20
2022-11-16T16:22:07.288Z,19.20
2022-11-16T16:24:48.758Z,19.20
2022-11-16T16:27:24.143Z,19.20
2022-11-16T16:29:58.405Z,19.20
2022-11-16T16:32:33.097Z,19.20
2022-11-16T16:35:08.377Z,19.20
2022-11-16T16:37:41.402Z,19.20
2022-11-16T16:40:14.915Z,19.20
2022-11-16T16:42:52.151Z,19.20
2022-11-16T16:45:43.333Z,19.20
2022-11-16T16:48:16.934Z,19.20
2022-11-16T16:50:51.545Z,19.20
2022-11-16T16:53:25.400Z,19.20
2022-11-16T16:55:59.278Z,19.30
2022-11-16T16:58:32.488Z,19.20
2022-11-16T17:01:07.561Z,19.20
2022-11-16T17:03:41.759Z,19.20
2022-11-16T17:06:15.998Z,19.20
2022-11-16T17:08:49.300Z,19.30
2022-11-16T17:11:24.118Z,19.30
2022-11-16T17:13:57.573Z,19.30
2022-11-16T17:16:32.042Z,19.30
2022-11-16T17:19:06.202Z,19.30
2022-11-16T17:21:40.194Z,19.30
2022-11-16T17:24:14.636Z,19.20
2022-11-16T17:26:49.266Z,19.30
2022-11-16T17:29:23.247Z,19.30
2022-11-16T17:31:58.576Z,19.30
2022-11-16T17:34:33.325Z,19.20
2022-11-16T17:37:07.788Z,19.30
2022-11-16T17:39:42.022Z,19.20
2022-11-16T17:42:16.003Z,19.30
2022-11-16T17:44:49.795Z,19.30
2022-11-16T17:47:23.963Z,19.20
2022-11-16T17:49:57.509Z,19.20
2022-11-16T17:52:31.729Z,19.20
2022-11-16T17:55:05.129Z,19.30
2022-11-16T17:57:39.069Z,19.30
2022-11-16T18:00:14.429Z,19.30
2022-11-16T18:02:47.478Z,19.30
2022-11-16T18:05:20.757Z,19.30
2022-11-16T18:07:53.838Z,19.30
2022-11-16T18:10:26.741Z,19.30
2022-11-16T18:12:59.733Z,19.30
2022-11-16T18:15:37.840Z,19.30
2022-11-16T18:18:07.938Z,19.30
2022-11-16T18:20:41.544Z,19.30
2022-11-16T18:23:14.602Z,19.30
2022-11-16T18:25:47.582Z,19.30
2022-11-16T18:28:21.924Z,19.30
2022-11-16T18:30:56.542Z,19.30
2022-11-16T18:33:30.771Z,19.30
2022-11-16T18:36:04.762Z,19.30
2022-11-16T18:38:38.379Z,19.40
2022-11-16T18:41:19.485Z,19.40
2022-11-16T18:44:00.166Z,19.40
2022-11-16T18:46:34.617Z,19.40
2022-11-16T18:49:07.735Z,19.40
2022-11-16T18:51:41.117Z,19.40
2022-11-16T18:54:14.516Z,19.50
2022-11-16T18:56:47.601Z,19.50
2022-11-16T18:59:20.863Z,19.50
2022-11-16T19:01:53.833Z,19.50
2022-11-16T19:04:27.897Z,19.50
2022-11-16T19:07:01.011Z,19.50
2022-11-16T19:09:34.103Z,19.50
2022-11-16T19:12:07.240Z,19.50
2022-11-16T19:14:41.289Z,19.50
2022-11-16T19:17:14.346Z,19.50
2022-11-16T19:19:47.201Z,19.50
2022-11-16T19:22:21.153Z,19.50
2022-11-16T19:24:54.190Z,19.50
2022-11-16T19:27:27.309Z,19.50
2022-11-16T19:30:03.315Z,19.50
2022-11-16T19:32:36.150Z,19.50
2022-11-16T19:35:09.523Z,19.50
2022-11-16T19:37:43.343Z,19.50
2022-11-16T19:40:19.805Z,19.50
2022-11-16T19:42:50.984Z,19.50
2022-11-16T19:45:23.914Z,19.50
2022-11-16T19:47:57.960Z,19.50
2022-11-16T19:50:31.011Z,19.50
2022-11-16T19:53:04.034Z,19.50
2022-11-16T19:55:36.995Z,19.50
2022-11-16T19:58:09.868Z,19.50
2022-11-16T20:00:43.269Z,19.60
2022-11-16T20:03:16.155Z,19.60
2022-11-16T20:05:49.114Z,19.60
2022-11-16T20:08:22.676Z,19.60
2022-11-16T20:10:55.776Z,19.60
2022-11-16T20:13:28.754Z,19.60
2022-11-16T20:16:03.062Z,19.60
2022-11-16T20:18:38.856Z,19.60
2022-11-16T20:21:13.592Z,19.60
2022-11-16T20:23:47.393Z,19.70
2022-11-16T20:26:20.963Z,19.70
2022-11-16T20:28:55.128Z,19.70
2022-11-16T20:31:29.760Z,19.70
2022-11-16T20:34:04.222Z,19.70
2022-11-16T20:36:37.898Z,19.70
2022-11-16T20:39:10.971Z,19.70
2022-11-16T20:41:44.713Z,19.70
2022-11-16T20:44:23.356Z,19.80
2022-11-16T20:46:56.321Z,19.80
2022-11-16T20:49:29.254Z,19.80
2022-11-16T20:52:02.205Z,19.80
2022-11-16T20:54:35.411Z,19.80
2022-11-16T20:57:08.487Z,19.80
2022-11-16T20:59:41.540Z,19.80
2022-11-16T21:02:15.120Z,19.80
2022-11-16T21:04:56.137Z,19.80
2022-11-16T21:07:26.735Z,19.90
2022-11-16T21:10:16.995Z,19.80
2022-11-16T21:13:07.695Z,19.90
2022-11-16T21:15:40.850Z,19.80
2022-11-16T21:18:13.915Z,19.80
2022-11-16T21:20:47.202Z,19.80
2022-11-16T21:23:20.209Z,19.70
2022-11-16T21:25:53.190Z,19.70
2022-11-16T21:28:28.544Z,19.70
2022-11-16T21:31:05.959Z,19.70
2022-11-16T21:33:39.042Z,19.70
2022-11-16T21:36:16.341Z,19.70
2022-11-16T21:38:50.639Z,19.70
2022-11-16T21:41:24.917Z,19.70
2022-11-16T21:43:58.011Z,19.70
2022-11-16T21:46:31.978Z,19.70
2022-11-16T21:49:05.203Z,19.60
2022-11-16T21:51:38.632Z,19.60
2022-11-16T21:54:11.748Z,19.60
2022-11-16T21:56:44.642Z,19.60
2022-11-16T21:59:17.685Z,19.60
2022-11-16T22:02:02.972Z,19.60
2022-11-16T22:04:53.552Z,19.70
2022-11-16T22:07:30.996Z,19.70
2022-11-16T22:10:07.719Z,19.80
2022-11-16T22:12:43.467Z,19.80
2022-11-16T22:15:16.826Z,19.90
2022-11-16T22:17:49.860Z,19.90
2022-11-16T22:20:23.324Z,20.00
2022-11-16T22:22:56.252Z,20.10
2022-11-16T22:25:29.392Z,20.10
2022-11-16T22:30:37.249Z,20.20
2022-11-16T22:33:14.655Z,20.20
2022-11-16T22:35:48.768Z,20.20
2022-11-16T22:38:21.850Z,20.20
2022-11-16T22:40:59.255Z,20.20
2022-11-16T22:43:33.910Z,20.20
2022-11-16T22:46:09.025Z,20.20
2022-11-16T22:48:43.297Z,20.20
2022-11-16T22:51:24.854Z,20.20
2022-11-16T22:53:59.076Z,20.20
2022-11-16T22:56:32.903Z,20.20
2022-11-16T22:59:06.828Z,20.20
2022-11-16T23:01:40.134Z,20.10
2022-11-16T23:04:13.281Z,20.10
2022-11-16T23:06:46.215Z,20.10
2022-11-16T23:09:19.778Z,20.10
2022-11-16T23:12:15.385Z,20.10
2022-11-16T23:18:03.815Z,20.10
2022-11-16T23:21:01.666Z,20.10
2022-11-16T23:23:58.802Z,20.00
2022-11-16T23:26:52.611Z,20.00
2022-11-16T23:29:30.686Z,20.00
2022-11-16T23:32:10.102Z,20.00
2022-11-16T23:34:48.818Z,20.10
2022-11-16T23:37:27.376Z,20.10
2022-11-16T23:40:04.168Z,20.10
2022-11-16T23:45:47.466Z,20.10
2022-11-16T23:48:30.849Z,20.10
2022-11-16T23:51:04.366Z,20.20
2022-11-16T23:53:44.676Z,20.20
2022-11-16T23:56:20.862Z,20.20
2022-11-16T23:58:54.096Z,20.20
